Time;durP1;ratioP1;P1;durP2;ratioP2;P2;SDS_P1;SDS_P2;PMS_P1;PMS_P2;Temp;Humidity;BMP_temperature;BMP_pressure;BME280_temperature;BME280_humidity;BME280_pressure;Samples;Min_cycle;Max_cycle;Signal;HPM_P1;HPM_P2
2022/06/10 00:00:00;;;;;;;6.50;2.77;;;;;;;;;;4983927;28;20232;-70
2022/06/10 00:02:25;;;;;;;3.87;2.60;;;;;;;;;;4979349;28;20263;-69
2022/06/10 00:04:53;;;;;;;3.67;2.80;;;;;;;;;;4990220;28;20221;-71
2022/06/10 00:07:21;;;;;;;3.77;2.70;;;;;;;;;;4958802;28;20236;-69
2022/06/10 00:09:49;;;;;;;4.57;2.87;;;;;;;;;;4971629;28;20577;-69
2022/06/10 00:12:15;;;;;;;4.23;2.87;;;;;;;;;;4987514;28;20395;-69
2022/06/10 00:14:40;;;;;;;4.70;2.60;;;;;;;;;;4955052;28;20711;-71
2022/06/10 00:17:06;;;;;;;4.03;2.73;;;;;;;;;;4997335;28;20222;-70
2022/06/10 00:19:32;;;;;;;5.13;2.63;;;;;;;;;;4987718;28;20603;-68
2022/06/10 00:22:00;;;;;;;3.80;2.77;;;;;;;;;;4982188;28;20288;-69
2022/06/10 00:24:25;;;;;;;2.93;2.50;;;;;;;;;;4969359;28;20636;-71
2022/06/10 00:26:51;;;;;;;5.27;2.70;;;;;;;;;;4988981;28;20256;-69
2022/06/10 00:29:19;;;;;;;4.07;2.90;;;;;;;;;;4973909;28;20738;-71
2022/06/10 00:31:44;;;;;;;4.77;2.40;;;;;;;;;;4968872;28;20279;-71
2022/06/10 00:34:12;;;;;;;6.20;3.00;;;;;;;;;;4987838;28;20233;-70
2022/06/10 00:36:37;;;;;;;4.70;3.10;;;;;;;;;;4985302;28;20225;-70
2022/06/10 00:39:03;;;;;;;3.97;3.13;;;;;;;;;;4988055;28;20586;-70
2022/06/10 00:41:31;;;;;;;3.53;3.20;;;;;;;;;;4983137;28;20665;-73
2022/06/10 00:43:57;;;;;;;3.43;3.00;;;;;;;;;;4986070;28;20230;-73
2022/06/10 00:46:30;;;;;;;2.80;2.60;;;;;;;;;;4987947;28;20222;-73
2022/06/10 00:49:09;;;;;;;2.93;2.53;;;;;;;;;;4972191;28;20674;-73
2022/06/10 00:51:43;;;;;;;4.07;2.40;;;;;;;;;;4985679;28;20233;-72
2022/06/10 00:54:30;;;;;;;3.03;2.73;;;;;;;;;;4970833;28;20225;-69
2022/06/10 00:57:04;;;;;;;3.80;2.70;;;;;;;;;;4985941;28;20336;-69
2022/06/10 00:59:44;;;;;;;3.23;2.77;;;;;;;;;;4989470;28;20252;-69
2022/06/10 01:02:23;;;;;;;4.67;2.70;;;;;;;;;;4967284;28;20604;-69
2022/06/10 01:04:53;;;;;;;2.63;2.43;;;;;;;;;;4943182;28;20233;-70
2022/06/10 01:07:20;;;;;;;5.47;2.67;;;;;;;;;;4968510;28;20296;-70
2022/06/10 01:09:46;;;;;;;5.00;2.90;;;;;;;;;;4969487;28;20229;-71
2022/06/10 01:12:26;;;;;;;3.20;2.90;;;;;;;;;;4966646;28;20233;-70
2022/06/10 01:14:54;;;;;;;3.97;2.80;;;;;;;;;;4987225;28;20737;-70
2022/06/10 01:17:40;;;;;;;3.63;2.90;;;;;;;;;;4977529;28;20233;-70
2022/06/10 01:20:27;;;;;;;3.83;2.80;;;;;;;;;;4985678;28;20637;-71
2022/06/10 01:23:20;;;;;;;4.03;2.87;;;;;;;;;;4968252;28;20232;-72
2022/06/10 01:26:07;;;;;;;3.30;2.90;;;;;;;;;;4990190;28;20218;-69
2022/06/10 01:28:35;;;;;;;3.60;2.87;;;;;;;;;;4990803;28;20875;-73
2022/06/10 01:31:19;;;;;;;4.20;3.00;;;;;;;;;;4993211;28;20216;-71
2022/06/10 01:34:09;;;;;;;2.70;2.50;;;;;;;;;;4992933;28;20375;-71
2022/06/10 01:36:37;;;;;;;5.27;3.00;;;;;;;;;;4959314;28;20743;-70
2022/06/10 01:39:09;;;;;;;4.30;2.90;;;;;;;;;;4990353;28;20324;-72
2022/06/10 01:41:47;;;;;;;3.00;2.70;;;;;;;;;;4989908;28;20221;-71
2022/06/10 01:44:19;;;;;;;3.50;3.07;;;;;;;;;;4991780;28;20424;-70
2022/06/10 01:47:19;;;;;;;3.20;2.90;;;;;;;;;;4990209;28;20255;-71
2022/06/10 01:49:54;;;;;;;3.30;3.00;;;;;;;;;;4934301;28;20264;-71
2022/06/10 01:52:45;;;;;;;3.53;3.00;;;;;;;;;;4988933;28;20688;-70
2022/06/10 01:55:43;;;;;;;3.10;2.80;;;;;;;;;;4973437;28;20267;-72
2022/06/10 01:58:20;;;;;;;4.90;2.93;;;;;;;;;;4989026;28;20233;-70
2022/06/10 02:00:48;;;;;;;4.57;3.00;;;;;;;;;;4958649;28;20251;-71
2022/06/10 02:03:33;;;;;;;4.00;3.00;;;;;;;;;;4972441;28;20225;-71
2022/06/10 02:06:05;;;;;;;3.37;2.90;;;;;;;;;;4991023;28;20225;-69
2022/06/10 02:08:39;;;;;;;3.50;2.63;;;;;;;;;;4972003;28;20276;-71
2022/06/10 02:11:10;;;;;;;4.07;2.57;;;;;;;;;;4990017;28;20308;-71
2022/06/10 02:13:47;;;;;;;4.30;3.00;;;;;;;;;;4955362;28;20312;-69
2022/06/10 02:16:18;;;;;;;3.77;2.87;;;;;;;;;;4971509;28;20232;-70
2022/06/10 02:18:57;;;;;;;4.50;2.93;;;;;;;;;;4956537;28;20226;-70
2022/06/10 02:21:38;;;;;;;3.30;2.40;;;;;;;;;;4956749;28;20220;-71
2022/06/10 02:24:17;;;;;;;2.60;2.40;;;;;;;;;;4975519;28;20234;-72
2022/06/10 02:26:42;;;;;;;2.50;2.30;;;;;;;;;;4970337;28;20304;-71
2022/06/10 02:29:10;;;;;;;2.40;2.20;;;;;;;;;;4973551;28;20683;-72
2022/06/10 02:31:56;;;;;;;2.60;2.40;;;;;;;;;;4972683;28;20225;-72
2022/06/10 02:34:22;;;;;;;2.83;2.30;;;;;;;;;;4971101;28;20630;-72
2022/06/10 02:36:55;;;;;;;4.00;2.60;;;;;;;;;;4971781;28;20237;-72
2022/06/10 02:39:31;;;;;;;2.93;2.73;;;;;;;;;;4973254;28;20275;-72
2022/06/10 02:42:26;;;;;;;2.93;2.63;;;;;;;;;;4941425;28;20256;-72
2022/06/10 02:45:13;;;;;;;3.47;3.00;;;;;;;;;;4983184;28;20316;-72
2022/06/10 02:48:25;;;;;;;3.17;2.73;;;;;;;;;;4970146;28;20218;-72
2022/06/10 02:50:53;;;;;;;2.80;2.50;;;;;;;;;;4933423;28;20228;-72
2022/06/10 02:53:19;;;;;;;3.07;2.77;;;;;;;;;;4987596;28;20235;-72
2022/06/10 02:55:47;;;;;;;3.90;2.60;;;;;;;;;;4990489;28;20247;-72
2022/06/10 03:01:14;;;;;;;2.93;2.23;;;;;;;;;;4973159;28;20283;-72
2022/06/10 03:03:56;;;;;;;3.13;2.40;;;;;;;;;;4988238;28;20253;-71
2022/06/10 03:06:25;;;;;;;2.90;2.63;;;;;;;;;;4989516;28;20217;-73
2022/06/10 03:09:11;;;;;;;2.70;2.47;;;;;;;;;;4986521;28;20228;-72
2022/06/10 03:11:58;;;;;;;3.00;2.23;;;;;;;;;;4955033;28;20717;-72
2022/06/10 03:14:48;;;;;;;4.50;2.63;;;;;;;;;;4987913;28;20237;-71
2022/06/10 03:17:29;;;;;;;2.50;2.30;;;;;;;;;;4941323;28;20221;-72
2022/06/10 03:20:01;;;;;;;2.77;2.03;;;;;;;;;;4968162;28;20225;-72
2022/06/10 03:22:53;;;;;;;2.90;2.23;;;;;;;;;;4971031;28;20740;-72
2022/06/10 03:25:24;;;;;;;2.47;2.23;;;;;;;;;;4971253;28;20617;-72
2022/06/10 03:28:18;;;;;;;3.50;2.47;;;;;;;;;;4970991;28;20226;-73
2022/06/10 03:31:16;;;;;;;4.77;2.47;;;;;;;;;;4992372;28;20678;-73
2022/06/10 03:33:49;;;;;;;2.50;2.30;;;;;;;;;;4923309;28;20249;-73
2022/06/10 03:36:21;;;;;;;2.73;2.53;;;;;;;;;;4950884;28;20225;-72
2022/06/10 03:38:50;;;;;;;2.70;2.27;;;;;;;;;;4953584;28;20213;-72
2022/06/10 03:41:18;;;;;;;3.50;2.10;;;;;;;;;;4971604;28;20315;-72
2022/06/10 03:43:46;;;;;;;2.40;2.20;;;;;;;;;;4989132;28;20630;-72
2022/06/10 03:46:12;;;;;;;2.73;2.13;;;;;;;;;;4972490;28;20213;-72
2022/06/10 03:48:39;;;;;;;2.93;2.20;;;;;;;;;;4939623;28;20308;-73
2022/06/10 03:51:05;;;;;;;3.53;2.40;;;;;;;;;;4952480;28;20213;-73
2022/06/10 03:53:30;;;;;;;2.67;2.00;;;;;;;;;;4954817;28;20236;-72
2022/06/10 03:55:56;;;;;;;3.63;2.07;;;;;;;;;;4971799;28;20290;-72
2022/06/10 03:58:26;;;;;;;2.40;1.90;;;;;;;;;;4988453;28;20237;-72
2022/06/10 04:00:51;;;;;;;2.30;2.10;;;;;;;;;;4973083;28;20236;-72
2022/06/10 04:03:21;;;;;;;2.00;1.90;;;;;;;;;;4947107;28;20285;-71
2022/06/10 04:05:47;;;;;;;2.73;2.17;;;;;;;;;;4987816;28;20699;-72
2022/06/10 04:08:12;;;;;;;3.00;2.43;;;;;;;;;;4953532;28;20228;-72
2022/06/10 04:10:40;;;;;;;3.47;2.23;;;;;;;;;;4937191;28;20217;-72
2022/06/10 04:13:08;;;;;;;3.43;2.40;;;;;;;;;;4937286;28;20741;-72
2022/06/10 04:15:33;;;;;;;2.07;1.90;;;;;;;;;;4955851;28;20715;-74
2022/06/10 04:17:59;;;;;;;5.47;2.53;;;;;;;;;;4972045;28;20341;-73
2022/06/10 04:20:34;;;;;;;2.60;2.40;;;;;;;;;;4952889;28;20272;-72
2022/06/10 04:23:03;;;;;;;3.87;2.60;;;;;;;;;;4966576;28;20308;-72
2022/06/10 04:25:28;;;;;;;2.63;2.43;;;;;;;;;;4952381;28;20228;-71
2022/06/10 04:27:54;;;;;;;2.70;2.50;;;;;;;;;;4953042;28;20218;-72
2022/06/10 04:30:28;;;;;;;3.67;2.73;;;;;;;;;;4952257;28;20225;-71
2022/06/10 04:32:59;;;;;;;5.03;3.20;;;;;;;;;;4939026;28;20233;-71
2022/06/10 04:35:29;;;;;;;3.33;3.03;;;;;;;;;;4953578;28;20221;-70
2022/06/10 04:37:57;;;;;;;5.30;3.47;;;;;;;;;;4935490;28;20226;-71
2022/06/10 04:40:29;;;;;;;4.03;3.30;;;;;;;;;;4954164;28;20690;-71
2022/06/10 04:42:54;;;;;;;4.33;3.43;;;;;;;;;;4953261;28;20229;-71
2022/06/10 04:45:30;;;;;;;5.90;4.10;;;;;;;;;;4968522;28;20225;-70
2022/06/10 04:47:56;;;;;;;5.07;3.93;;;;;;;;;;4938289;28;20560;-72
2022/06/10 04:50:24;;;;;;;4.10;3.70;;;;;;;;;;4965621;28;20237;-71
2022/06/10 04:52:51;;;;;;;5.57;3.93;;;;;;;;;;4935258;28;20237;-73
2022/06/10 04:55:19;;;;;;;7.00;4.40;;;;;;;;;;4933136;28;20217;-73
2022/06/10 04:57:45;;;;;;;6.57;3.90;;;;;;;;;;4939979;28;20306;-73
2022/06/10 05:00:15;;;;;;;7.20;4.63;;;;;;;;;;4942398;28;20695;-73
2022/06/10 05:02:44;;;;;;;5.80;4.53;;;;;;;;;;4954094;28;20336;-72
2022/06/10 05:05:11;;;;;;;4.83;4.40;;;;;;;;;;4986535;28;20595;-72
2022/06/10 05:07:39;;;;;;;4.80;4.30;;;;;;;;;;4939341;28;20213;-71
2022/06/10 05:10:07;;;;;;;5.73;4.43;;;;;;;;;;4966127;28;20229;-73
2022/06/10 05:12:35;;;;;;;5.07;4.40;;;;;;;;;;4955589;28;20304;-73
2022/06/10 05:15:03;;;;;;;6.23;4.50;;;;;;;;;;4951333;28;20550;-72
2022/06/10 05:17:28;;;;;;;6.17;4.60;;;;;;;;;;4937903;28;20252;-72
2022/06/10 05:19:54;;;;;;;6.93;4.93;;;;;;;;;;4970644;28;20221;-73
2022/06/10 05:22:23;;;;;;;7.45;4.28;;;;;;;;;;4987505;28;20229;-72
2022/06/10 05:24:48;;;;;;;5.35;4.30;;;;;;;;;;4933548;28;20234;-71
2022/06/10 05:27:16;;;;;;;5.47;4.30;;;;;;;;;;4982215;28;20710;-73
2022/06/10 05:29:42;;;;;;;6.30;4.37;;;;;;;;;;4952049;28;20284;-73
2022/06/10 05:32:07;;;;;;;7.53;3.83;;;;;;;;;;4964088;28;20233;-72
2022/06/10 05:34:48;;;;;;;4.75;3.67;;;;;;;;;;4955198;28;20695;-72
2022/06/10 05:37:21;;;;;;;5.60;4.07;;;;;;;;;;4991070;28;20291;-73
2022/06/10 05:39:49;;;;;;;4.93;3.83;;;;;;;;;;4960319;28;20745;-72
2022/06/10 05:42:18;;;;;;;6.18;4.28;;;;;;;;;;4959268;28;20221;-72
2022/06/10 05:44:45;;;;;;;8.82;3.80;;;;;;;;;;4927061;28;20729;-72
2022/06/10 05:47:33;;;;;;;9.37;3.60;;;;;;;;;;4942964;28;20638;-72
2022/06/10 05:49:59;;;;;;;5.45;3.72;;;;;;;;;;4958844;28;20210;-72
2022/06/10 05:52:29;;;;;;;6.85;3.63;;;;;;;;;;4956763;28;20652;-72
2022/06/10 05:55:00;;;;;;;6.72;3.30;;;;;;;;;;4968602;28;20707;-71
2022/06/10 05:57:28;;;;;;;6.88;3.30;;;;;;;;;;4982863;28;20225;-72
2022/06/10 05:59:54;;;;;;;5.20;3.55;;;;;;;;;;4964644;28;20217;-72
2022/06/10 06:02:22;;;;;;;5.78;3.13;;;;;;;;;;4962295;28;20272;-72
2022/06/10 06:04:50;;;;;;;5.38;2.72;;;;;;;;;;4956947;28;20221;-71
2022/06/10 06:07:26;;;;;;;5.90;3.10;;;;;;;;;;4959300;28;20217;-72
2022/06/10 06:09:54;;;;;;;6.78;3.08;;;;;;;;;;4933697;28;20301;-72
2022/06/10 06:12:22;;;;;;;4.35;2.50;;;;;;;;;;4926518;28;20222;-73
2022/06/10 06:14:47;;;;;;;4.60;2.42;;;;;;;;;;4958983;28;20253;-72
2022/06/10 06:17:16;;;;;;;6.20;2.65;;;;;;;;;;4991564;28;20252;-72
2022/06/10 06:19:41;;;;;;;5.35;2.70;;;;;;;;;;4960819;28;20226;-72
2022/06/10 06:22:09;;;;;;;6.45;2.33;;;;;;;;;;4956642;28;20279;-72
2022/06/10 06:24:35;;;;;;;8.65;2.72;;;;;;;;;;4970988;28;20225;-72
2022/06/10 06:27:03;;;;;;;4.28;2.40;;;;;;;;;;4959429;28;20225;-72
2022/06/10 06:29:29;;;;;;;4.35;2.45;;;;;;;;;;4956162;28;20252;-73
2022/06/10 06:31:54;;;;;;;6.88;2.35;;;;;;;;;;4957145;28;20230;-73
2022/06/10 06:34:22;;;;;;;4.68;2.20;;;;;;;;;;4992717;28;20283;-73
2022/06/10 06:36:51;;;;;;;3.95;2.00;;;;;;;;;;4957409;28;20632;-72
2022/06/10 06:39:18;;;;;;;6.68;2.33;;;;;;;;;;4942138;28;20248;-73
2022/06/10 06:41:46;;;;;;;6.70;2.50;;;;;;;;;;4957239;28;20237;-73
2022/06/10 06:44:17;;;;;;;5.07;2.22;;;;;;;;;;4956880;28;20345;-72
2022/06/10 06:46:47;;;;;;;6.75;2.15;;;;;;;;;;4971066;28;20233;-72
2022/06/10 06:49:18;;;;;;;4.13;1.85;;;;;;;;;;4953446;28;20222;-72
2022/06/10 06:51:43;;;;;;;4.88;2.08;;;;;;;;;;4943050;28;20222;-72
2022/06/10 06:54:09;;;;;;;6.15;2.08;;;;;;;;;;4957232;28;20209;-73
2022/06/10 06:56:37;;;;;;;4.40;1.95;;;;;;;;;;4966679;28;20621;-72
2022/06/10 06:59:05;;;;;;;3.75;1.70;;;;;;;;;;4959361;28;20237;-71
2022/06/10 07:01:30;;;;;;;4.65;1.63;;;;;;;;;;4972282;28;20234;-73
2022/06/10 07:03:56;;;;;;;7.05;1.92;;;;;;;;;;4939679;28;20233;-73
2022/06/10 07:06:22;;;;;;;5.75;1.88;;;;;;;;;;4990462;28;20392;-73
2022/06/10 07:08:50;;;;;;;5.70;1.80;;;;;;;;;;4972266;28;20225;-71
2022/06/10 07:11:18;;;;;;;8.52;1.67;;;;;;;;;;4987820;28;20233;-73
2022/06/10 07:13:46;;;;;;;3.70;1.48;;;;;;;;;;4972874;28;20291;-71
2022/06/10 07:16:12;;;;;;;4.63;1.73;;;;;;;;;;4972004;28;20301;-73
2022/06/10 07:18:40;;;;;;;3.13;1.48;;;;;;;;;;4970135;28;20244;-72
2022/06/10 07:21:08;;;;;;;4.75;1.48;;;;;;;;;;4971709;28;20234;-73
2022/06/10 07:23:35;;;;;;;4.50;1.63;;;;;;;;;;4980329;28;20252;-75
2022/06/10 07:26:02;;;;;;;3.03;1.45;;;;;;;;;;4986679;28;20272;-73
2022/06/10 07:28:28;;;;;;;4.65;1.48;;;;;;;;;;4954603;28;20310;-71
2022/06/10 07:30:56;;;;;;;4.90;1.67;;;;;;;;;;4990305;28;20596;-74
2022/06/10 07:33:22;;;;;;;3.90;1.58;;;;;;;;;;4971429;28;20316;-74
2022/06/10 07:35:48;;;;;;;5.75;1.60;;;;;;;;;;4968406;28;20217;-72
2022/06/10 07:38:22;;;;;;;7.72;1.52;;;;;;;;;;4968220;28;20217;-72
2022/06/10 07:43:35;;;;;;;5.93;1.80;;;;;;;;;;4973791;28;20253;-72
2022/06/10 07:46:01;;;;;;;5.68;1.70;;;;;;;;;;4941815;28;20236;-74
2022/06/10 07:48:26;;;;;;;5.85;1.95;;;;;;;;;;4939354;28;20225;-73
2022/06/10 07:50:58;;;;;;;4.32;1.50;;;;;;;;;;4971058;28;20647;-73
2022/06/10 07:53:24;;;;;;;6.28;1.67;;;;;;;;;;4968173;28;20233;-73
2022/06/10 07:55:49;;;;;;;3.80;1.80;;;;;;;;;;4984790;28;20248;-74
2022/06/10 07:58:16;;;;;;;4.40;1.58;;;;;;;;;;4951492;28;20221;-73
2022/06/10 08:00:44;;;;;;;7.60;1.90;;;;;;;;;;4952411;28;20222;-73
2022/06/10 08:03:13;;;;;;;5.13;1.80;;;;;;;;;;4970622;28;20296;-74
2022/06/10 08:05:46;;;;;;;5.28;1.58;;;;;;;;;;4952053;28;20229;-74
2022/06/10 08:08:15;;;;;;;7.15;1.90;;;;;;;;;;4970496;28;20720;-73
2022/06/10 08:10:40;;;;;;;4.35;1.60;;;;;;;;;;4969055;28;20309;-74
2022/06/10 08:13:08;;;;;;;7.72;1.60;;;;;;;;;;4954928;28;20233;-74
2022/06/10 08:15:36;;;;;;;3.95;1.52;;;;;;;;;;4966429;28;20224;-74
2022/06/10 08:18:02;;;;;;;5.75;1.80;;;;;;;;;;4934337;28;20268;-74
2022/06/10 08:23:28;;;;;;;8.00;3.13;;;;;;;;;;4972075;28;20230;-75
2022/06/10 08:25:54;;;;;;;5.90;2.03;;;;;;;;;;4955106;28;20283;-72
2022/06/10 08:28:22;;;;;;;4.53;1.80;;;;;;;;;;4953276;28;20685;-72
2022/06/10 08:30:48;;;;;;;4.68;2.10;;;;;;;;;;4954264;28;20884;-74
2022/06/10 08:33:14;;;;;;;5.55;2.20;;;;;;;;;;4966956;28;20282;-73
2022/06/10 08:35:39;;;;;;;8.32;1.90;;;;;;;;;;4971506;28;20263;-74
2022/06/10 08:38:06;;;;;;;7.93;1.90;;;;;;;;;;4970295;28;20240;-73
2022/06/10 08:40:44;;;;;;;5.10;1.90;;;;;;;;;;4941992;28;20245;-73
2022/06/10 08:43:40;;;;;;;5.90;2.10;;;;;;;;;;4965570;28;20213;-74
2022/06/10 08:46:27;;;;;;;8.30;2.00;;;;;;;;;;4985491;28;20773;-74
2022/06/10 08:49:22;;;;;;;5.15;2.30;;;;;;;;;;4971494;28;20741;-74
2022/06/10 08:52:09;;;;;;;5.28;2.10;;;;;;;;;;4970764;28;20237;-74
2022/06/10 08:54:46;;;;;;;7.28;2.30;;;;;;;;;;4985588;28;20304;-74
2022/06/10 08:57:23;;;;;;;7.32;2.65;;;;;;;;;;4982200;28;20654;-73
2022/06/10 08:59:49;;;;;;;6.75;2.50;;;;;;;;;;4985246;28;20327;-72
2022/06/10 09:02:25;;;;;;;5.85;2.47;;;;;;;;;;4955882;28;20236;-75
2022/06/10 09:05:07;;;;;;;9.20;2.63;;;;;;;;;;4966655;28;20275;-74
2022/06/10 09:07:38;;;;;;;5.32;2.20;;;;;;;;;;4969011;28;20308;-74
2022/06/10 09:10:07;;;;;;;5.70;2.38;;;;;;;;;;4954908;28;20268;-75
2022/06/10 09:12:48;;;;;;;5.32;2.20;;;;;;;;;;4941308;28;20230;-72
2022/06/10 09:15:14;;;;;;;5.03;1.83;;;;;;;;;;4968332;28;20232;-72
2022/06/10 09:17:51;;;;;;;6.53;2.35;;;;;;;;;;4967267;28;20226;-74
2022/06/10 09:20:28;;;;;;;7.65;2.63;;;;;;;;;;4949276;28;20230;-73
2022/06/10 09:23:04;;;;;;;6.57;2.75;;;;;;;;;;4952207;28;20225;-72
2022/06/10 09:25:38;;;;;;;5.70;2.35;;;;;;;;;;4970869;28;20232;-74
2022/06/10 09:28:06;;;;;;;9.93;2.50;;;;;;;;;;4968187;28;20221;-72
2022/06/10 09:30:55;;;;;;;5.47;2.67;;;;;;;;;;4968544;28;20248;-71
2022/06/10 09:33:29;;;;;;;7.38;2.53;;;;;;;;;;4969656;28;20242;-72
2022/06/10 09:36:02;;;;;;;6.53;2.53;;;;;;;;;;4986654;28;20228;-72
2022/06/10 09:38:53;;;;;;;5.07;2.33;;;;;;;;;;4986490;28;20220;-72
2022/06/10 09:41:19;;;;;;;5.65;2.63;;;;;;;;;;4983139;28;20990;-71
2022/06/10 09:43:47;;;;;;;8.00;2.42;;;;;;;;;;4986456;28;20284;-72
2022/06/10 09:46:51;;;;;;;6.97;2.83;;;;;;;;;;4988446;28;20312;-72
2022/06/10 09:49:34;;;;;;;5.47;2.42;;;;;;;;;;4988989;28;20217;-72
2022/06/10 09:52:09;;;;;;;6.50;2.38;;;;;;;;;;4985702;28;20225;-72
2022/06/10 09:54:43;;;;;;;7.13;2.67;;;;;;;;;;4971935;28;20831;-73
2022/06/10 09:57:22;;;;;;;5.05;2.20;;;;;;;;;;4988618;28;20257;-72
2022/06/10 09:59:57;;;;;;;6.72;2.60;;;;;;;;;;4959160;28;20231;-72
2022/06/10 10:02:47;;;;;;;6.53;2.13;;;;;;;;;;4986126;28;20699;-72
2022/06/10 10:05:45;;;;;;;6.72;2.00;;;;;;;;;;4967254;28;20221;-72
2022/06/10 10:08:17;;;;;;;7.85;2.33;;;;;;;;;;4974367;28;20241;-75
2022/06/10 10:10:57;;;;;;;5.30;2.15;;;;;;;;;;4950724;28;20229;-72
2022/06/10 10:13:35;;;;;;;7.07;2.40;;;;;;;;;;4954452;28;20232;-72
2022/06/10 10:16:28;;;;;;;7.43;2.38;;;;;;;;;;4970797;28;20229;-70
2022/06/10 10:19:43;;;;;;;6.95;2.38;;;;;;;;;;4985183;28;20625;-72
2022/06/10 10:22:26;;;;;;;6.05;2.33;;;;;;;;;;4937098;28;20225;-73
2022/06/10 10:24:51;;;;;;;4.20;1.90;;;;;;;;;;4986433;28;20237;-72
2022/06/10 10:27:23;;;;;;;6.25;2.45;;;;;;;;;;4986704;28;20213;-72
2022/06/10 10:29:54;;;;;;;3.95;1.80;;;;;;;;;;4954091;28;20313;-72
2022/06/10 10:32:29;;;;;;;4.68;2.10;;;;;;;;;;4970393;28;20613;-71
2022/06/10 10:35:03;;;;;;;3.83;2.00;;;;;;;;;;4956288;28;20229;-71
2022/06/10 10:37:34;;;;;;;5.82;2.00;;;;;;;;;;4954465;28;20228;-71
2022/06/10 10:40:04;;;;;;;3.03;1.65;;;;;;;;;;4956989;28;20861;-72
2022/06/10 10:42:36;;;;;;;3.20;1.77;;;;;;;;;;4982798;28;20229;-72
2022/06/10 10:45:24;;;;;;;4.72;1.77;;;;;;;;;;4969037;28;20269;-72
2022/06/10 10:48:01;;;;;;;3.05;1.70;;;;;;;;;;4989383;28;20312;-72
2022/06/10 10:50:38;;;;;;;4.55;1.77;;;;;;;;;;4954201;28;20256;-72
2022/06/10 10:53:20;;;;;;;2.47;1.40;;;;;;;;;;4969123;28;20228;-70
2022/06/10 10:55:51;;;;;;;2.97;1.33;;;;;;;;;;4967324;28;20213;-73
2022/06/10 10:58:22;;;;;;;3.38;1.50;;;;;;;;;;4987990;28;20273;-72
2022/06/10 11:01:03;;;;;;;2.35;1.17;;;;;;;;;;4938045;28;20663;-72
2022/06/10 11:03:29;;;;;;;5.75;1.50;;;;;;;;;;4938320;28;20561;-71
2022/06/10 11:05:58;;;;;;;2.63;1.40;;;;;;;;;;4989640;28;20245;-72
2022/06/10 11:08:38;;;;;;;5.38;1.83;;;;;;;;;;4986815;28;20360;-72
2022/06/10 11:11:05;;;;;;;5.50;1.80;;;;;;;;;;4970624;28;20722;-73
2022/06/10 11:13:56;;;;;;;3.58;1.70;;;;;;;;;;4969020;28;20754;-72
2022/06/10 11:16:29;;;;;;;3.67;1.80;;;;;;;;;;4985340;28;20312;-71
2022/06/10 11:19:11;;;;;;;7.82;1.90;;;;;;;;;;4988940;28;20276;-71
2022/06/10 11:22:17;;;;;;;4.78;1.70;;;;;;;;;;4964703;28;20229;-71
2022/06/10 11:24:46;;;;;;;5.35;2.38;;;;;;;;;;4976261;28;20256;-71
2022/06/10 11:27:28;;;;;;;6.40;2.28;;;;;;;;;;4967758;28;20214;-72
2022/06/10 11:30:00;;;;;;;3.65;2.22;;;;;;;;;;5002683;28;20233;-72
2022/06/10 11:32:28;;;;;;;6.03;2.13;;;;;;;;;;4987013;28;20228;-72
2022/06/10 11:35:03;;;;;;;5.85;2.47;;;;;;;;;;4973405;28;20222;-72
2022/06/10 11:37:38;;;;;;;4.55;1.77;;;;;;;;;;4976799;28;20228;-72
2022/06/10 11:40:21;;;;;;;6.22;2.17;;;;;;;;;;4973818;28;20224;-71
2022/06/10 11:43:00;;;;;;;3.67;2.13;;;;;;;;;;4971507;28;20217;-72
2022/06/10 11:45:44;;;;;;;4.93;2.28;;;;;;;;;;4972349;28;20225;-71
2022/06/10 11:48:24;;;;;;;5.43;2.35;;;;;;;;;;4985575;28;20608;-72
2022/06/10 11:51:04;;;;;;;5.45;2.10;;;;;;;;;;4971476;28;20710;-71
2022/06/10 11:53:56;;;;;;;4.72;2.03;;;;;;;;;;4972327;28;20610;-72
2022/06/10 12:00:02;;;;;;;5.72;2.20;;;;;;;;;;4940582;28;20242;-73
2022/06/10 12:02:41;;;;;;;6.38;2.20;;;;;;;;;;4980602;28;20214;-73
2022/06/10 12:05:49;;;;;;;6.70;1.92;;;;;;;;;;4971181;28;20249;-71
2022/06/10 12:08:37;;;;;;;4.55;1.60;;;;;;;;;;4906431;28;20221;-72
2022/06/10 12:11:14;;;;;;;4.65;1.80;;;;;;;;;;4951310;28;20769;-72
2022/06/10 12:13:46;;;;;;;4.45;1.90;;;;;;;;;;4972516;28;20737;-72
2022/06/10 12:16:12;;;;;;;7.13;1.75;;;;;;;;;;4981155;28;20317;-71
2022/06/10 12:18:42;;;;;;;3.67;1.58;;;;;;;;;;4955589;28;20225;-71
2022/06/10 12:21:15;;;;;;;4.07;1.92;;;;;;;;;;4953248;28;20229;-72
2022/06/10 12:23:42;;;;;;;6.15;1.95;;;;;;;;;;4954065;28;20312;-73
2022/06/10 12:26:10;;;;;;;4.35;2.10;;;;;;;;;;4956114;28;20244;-72
2022/06/10 12:28:38;;;;;;;7.72;2.10;;;;;;;;;;4969911;28;20229;-72
2022/06/10 12:31:49;;;;;;;5.30;1.92;;;;;;;;;;4976455;28;20218;-71
2022/06/10 12:34:23;;;;;;;4.03;1.95;;;;;;;;;;4966357;28;20244;-72
2022/06/10 12:36:57;;;;;;;4.75;2.00;;;;;;;;;;4970196;28;20244;-71
2022/06/10 12:39:36;;;;;;;6.00;1.90;;;;;;;;;;4966439;28;20683;-71
2022/06/10 12:42:20;;;;;;;5.80;1.90;;;;;;;;;;4952374;28;20225;-71
2022/06/10 12:44:54;;;;;;;7.60;2.13;;;;;;;;;;4956864;28;20240;-75
2022/06/10 12:47:26;;;;;;;3.95;1.60;;;;;;;;;;4963763;28;20222;-72
2022/06/10 12:49:58;;;;;;;4.47;1.80;;;;;;;;;;4985206;28;20257;-72
2022/06/10 12:52:38;;;;;;;5.85;1.40;;;;;;;;;;4970183;28;20233;-73
2022/06/10 12:55:13;;;;;;;5.32;1.45;;;;;;;;;;4984130;28;20710;-73
2022/06/10 12:57:42;;;;;;;2.75;1.15;;;;;;;;;;4969122;28;20232;-72
2022/06/10 13:00:23;;;;;;;2.30;1.30;;;;;;;;;;4965638;28;20351;-71
2022/06/10 13:03:17;;;;;;;3.85;1.25;;;;;;;;;;4985404;28;20225;-74
2022/06/10 13:05:48;;;;;;;3.88;1.38;;;;;;;;;;4963076;28;20252;-72
2022/06/10 13:08:35;;;;;;;4.07;1.27;;;;;;;;;;4979115;28;20225;-73
2022/06/10 13:11:03;;;;;;;3.70;1.20;;;;;;;;;;4987725;28;20232;-72
2022/06/10 13:13:29;;;;;;;3.92;1.20;;;;;;;;;;4982493;28;20321;-73
2022/06/10 13:16:14;;;;;;;5.30;1.33;;;;;;;;;;4980244;28;20286;-73
2022/06/10 13:18:42;;;;;;;4.35;1.13;;;;;;;;;;4933906;28;20230;-73
2022/06/10 13:21:10;;;;;;;4.55;1.50;;;;;;;;;;4988636;28;20229;-72
2022/06/10 13:24:11;;;;;;;7.15;1.38;;;;;;;;;;4963125;28;20292;-72
2022/06/10 13:26:37;;;;;;;4.13;1.13;;;;;;;;;;4988537;28;20698;-72
2022/06/10 13:29:14;;;;;;;3.38;1.13;;;;;;;;;;4992768;28;20232;-73
2022/06/10 13:31:52;;;;;;;1.95;1.00;;;;;;;;;;4964412;28;20655;-73
2022/06/10 13:34:23;;;;;;;6.03;1.27;;;;;;;;;;4958415;28;20283;-73
2022/06/10 13:36:55;;;;;;;2.28;1.00;;;;;;;;;;4970193;28;20351;-72
2022/06/10 13:39:30;;;;;;;3.90;1.38;;;;;;;;;;4976349;28;20228;-74
2022/06/10 13:41:55;;;;;;;2.80;1.35;;;;;;;;;;4990741;28;20236;-73
2022/06/10 13:44:30;;;;;;;3.50;1.25;;;;;;;;;;4990671;28;20237;-74
2022/06/10 13:46:57;;;;;;;3.53;1.20;;;;;;;;;;4966518;28;20229;-73
2022/06/10 13:49:51;;;;;;;4.78;1.25;;;;;;;;;;4958037;28;20263;-74
2022/06/10 13:52:25;;;;;;;3.53;1.27;;;;;;;;;;4988439;28;20650;-73
2022/06/10 13:54:51;;;;;;;3.00;1.30;;;;;;;;;;4972094;28;20227;-74
2022/06/10 13:57:28;;;;;;;2.40;1.08;;;;;;;;;;4974522;28;20382;-72
2022/06/10 14:00:08;;;;;;;1.35;1.00;;;;;;;;;;4991505;28;20221;-74
2022/06/10 14:02:38;;;;;;;4.50;1.00;;;;;;;;;;4956447;28;20591;-72
2022/06/10 14:05:06;;;;;;;1.58;0.82;;;;;;;;;;4932902;28;20237;-73
2022/06/10 14:07:35;;;;;;;3.90;1.00;;;;;;;;;;4983602;28;20224;-72
2022/06/10 14:10:13;;;;;;;1.75;1.00;;;;;;;;;;4973795;28;20703;-71
2022/06/10 14:12:39;;;;;;;1.48;0.80;;;;;;;;;;4956526;28;20247;-73
2022/06/10 14:15:16;;;;;;;2.40;1.15;;;;;;;;;;4973020;28;20259;-72
2022/06/10 14:17:53;;;;;;;3.83;1.20;;;;;;;;;;4974803;28;20758;-72
2022/06/10 14:20:23;;;;;;;2.85;1.20;;;;;;;;;;4972101;28;20699;-71
2022/06/10 14:22:48;;;;;;;3.08;1.10;;;;;;;;;;4974087;28;20730;-71
2022/06/10 14:25:14;;;;;;;2.17;0.95;;;;;;;;;;4975088;28;20309;-71
2022/06/10 14:27:58;;;;;;;4.70;1.27;;;;;;;;;;4989489;28;20284;-73
2022/06/10 14:30:28;;;;;;;2.67;1.05;;;;;;;;;;4988803;28;20227;-71
2022/06/10 14:32:58;;;;;;;3.28;1.10;;;;;;;;;;4958158;28;20309;-73
2022/06/10 14:35:31;;;;;;;2.65;1.20;;;;;;;;;;4978616;28;20218;-72
2022/06/10 14:38:04;;;;;;;2.72;1.30;;;;;;;;;;4975389;28;20272;-71
2022/06/10 14:40:33;;;;;;;1.88;0.98;;;;;;;;;;4953576;28;20602;-70
2022/06/10 14:43:05;;;;;;;2.53;1.13;;;;;;;;;;4954842;28;20585;-71
2022/06/10 14:45:38;;;;;;;2.83;1.20;;;;;;;;;;4944454;28;20238;-72
2022/06/10 14:48:08;;;;;;;3.42;1.13;;;;;;;;;;4932398;28;20242;-71
2022/06/10 14:50:41;;;;;;;1.27;0.80;;;;;;;;;;4989854;28;20229;-70
2022/06/10 14:53:16;;;;;;;2.72;1.13;;;;;;;;;;4942260;28;20313;-72
2022/06/10 14:55:46;;;;;;;2.53;1.15;;;;;;;;;;4972629;28;20231;-71
2022/06/10 14:58:12;;;;;;;2.47;1.20;;;;;;;;;;4934346;28;20225;-71
2022/06/10 15:00:41;;;;;;;2.92;1.00;;;;;;;;;;4944985;28;20305;-73
2022/06/10 15:03:18;;;;;;;1.42;1.00;;;;;;;;;;4984294;28;20225;-73
2022/06/10 15:08:29;;;;;;;2.78;0.93;;;;;;;;;;4945462;28;20233;-71
2022/06/10 15:10:54;;;;;;;1.95;0.90;;;;;;;;;;4969422;28;20226;-73
2022/06/10 15:13:34;;;;;;;3.85;1.17;;;;;;;;;;4972853;28;20321;-72
2022/06/10 15:16:03;;;;;;;2.25;0.95;;;;;;;;;;4956839;28;20327;-72
2022/06/10 15:18:32;;;;;;;2.85;0.90;;;;;;;;;;4955383;28;20324;-73
2022/06/10 15:21:04;;;;;;;2.33;1.13;;;;;;;;;;4954927;28;20739;-72
2022/06/10 15:23:30;;;;;;;1.90;1.05;;;;;;;;;;4934758;28;20241;-72
2022/06/10 15:25:57;;;;;;;3.38;1.30;;;;;;;;;;4935963;28;20229;-73
2022/06/10 15:28:27;;;;;;;2.38;1.10;;;;;;;;;;4983350;28;20600;-72
2022/06/10 15:30:54;;;;;;;2.08;1.27;;;;;;;;;;4986656;28;20355;-73
2022/06/10 15:33:20;;;;;;;2.75;1.55;;;;;;;;;;4987849;28;20229;-71